Time;durP1;ratioP1;P1;durP2;ratioP2;P2;SDS_P1;SDS_P2;PMS_P1;PMS_P2;Temp;Humidity;BMP_temperature;BMP_pressure;BME280_temperature;BME280_humidity;BME280_pressure;Samples;Min_cycle;Max_cycle;Signal;HPM_P1;HPM_P2
2021/06/22 00:00:21;;;;;;;7.07;2.20;;;24.70;99.90;;;;;;6268892;22;20182;-73
2021/06/22 00:02:49;;;;;;;7.05;2.65;;;24.70;99.90;;;;;;6269222;22;20209;-73
2021/06/22 00:05:20;;;;;;;8.38;2.75;;;24.60;99.90;;;;;;6267950;22;20207;-73
2021/06/22 00:07:48;;;;;;;12.13;3.13;;;24.50;99.90;;;;;;6288641;22;20205;-73
2021/06/22 00:10:15;;;;;;;6.95;2.63;;;24.30;99.90;;;;;;6272535;22;20176;-73
2021/06/22 00:12:43;;;;;;;7.18;2.50;;;24.20;99.90;;;;;;6268671;22;20208;-73
2021/06/22 00:15:12;;;;;;;5.13;2.60;;;24.20;99.90;;;;;;6269926;22;20186;-72
2021/06/22 00:17:40;;;;;;;7.32;2.40;;;24.30;99.90;;;;;;6269532;22;20220;-73
2021/06/22 00:20:09;;;;;;;3.75;2.03;;;24.30;99.90;;;;;;6268899;22;20559;-74
2021/06/22 00:22:38;;;;;;;7.82;2.50;;;24.40;99.90;;;;;;6269699;22;20802;-73
2021/06/22 00:25:07;;;;;;;2.83;2.05;;;24.40;99.90;;;;;;6269343;22;20198;-73
2021/06/22 00:27:34;;;;;;;3.80;2.15;;;24.40;99.90;;;;;;6268044;22;20209;-73
2021/06/22 00:30:02;;;;;;;6.97;2.63;;;24.40;99.90;;;;;;6267246;22;20178;-73
2021/06/22 00:32:29;;;;;;;7.05;2.83;;;24.50;99.90;;;;;;6275976;22;20212;-74
2021/06/22 00:34:56;;;;;;;3.92;1.92;;;24.50;99.90;;;;;;6273735;22;20508;-73
2021/06/22 00:37:23;;;;;;;6.68;2.63;;;24.50;99.90;;;;;;6271153;22;20210;-74
2021/06/22 00:39:51;;;;;;;5.82;2.58;;;24.40;99.90;;;;;;6268315;22;20173;-74
2021/06/22 00:42:19;;;;;;;8.32;2.85;;;24.40;99.90;;;;;;6269908;22;20209;-73
2021/06/22 00:44:47;;;;;;;9.32;2.35;;;24.30;99.90;;;;;;6270912;22;20674;-73
2021/06/22 00:47:15;;;;;;;6.03;2.47;;;24.20;99.90;;;;;;6270781;22;20538;-73
2021/06/22 00:49:42;;;;;;;6.25;2.47;;;24.10;99.90;;;;;;6277904;22;20200;-71
2021/06/22 00:52:09;;;;;;;4.05;1.88;;;24.10;99.90;;;;;;6283940;22;20210;-72
2021/06/22 00:54:37;;;;;;;7.25;2.83;;;24.10;99.90;;;;;;6270568;22;20166;-74
2021/06/22 00:57:07;;;;;;;7.47;2.60;;;24.00;99.90;;;;;;6270346;22;20228;-73
2021/06/22 00:59:35;;;;;;;9.20;2.67;;;23.90;99.90;;;;;;6270134;22;20181;-74
2021/06/22 01:02:03;;;;;;;4.72;2.33;;;23.70;99.90;;;;;;6270414;22;20209;-74
2021/06/22 01:04:31;;;;;;;6.80;2.75;;;23.70;99.90;;;;;;6270275;22;20197;-74
2021/06/22 01:06:59;;;;;;;6.82;2.67;;;23.80;99.90;;;;;;6268077;22;20243;-74
2021/06/22 01:09:28;;;;;;;5.47;2.15;;;23.80;99.90;;;;;;6268064;22;20169;-74
2021/06/22 01:11:55;;;;;;;6.28;2.45;;;23.80;99.90;;;;;;6268365;22;20205;-74
2021/06/22 01:14:24;;;;;;;8.30;3.05;;;23.80;99.90;;;;;;6269659;22;20506;-74
2021/06/22 01:16:51;;;;;;;8.55;3.20;;;23.70;99.90;;;;;;6270452;22;20209;-74
2021/06/22 01:19:19;;;;;;;7.53;2.65;;;23.80;99.90;;;;;;6269796;22;20180;-74
2021/06/22 01:21:48;;;;;;;4.70;2.60;;;23.80;99.90;;;;;;6278741;22;20215;-74
2021/06/22 01:24:17;;;;;;;3.72;2.10;;;23.80;99.90;;;;;;6270854;22;20190;-74
2021/06/22 01:26:48;;;;;;;4.32;2.38;;;23.90;99.90;;;;;;6270531;22;20209;-73
2021/06/22 01:29:15;;;;;;;7.32;2.40;;;23.90;99.90;;;;;;6271070;22;20170;-74
2021/06/22 01:31:43;;;;;;;5.38;2.22;;;24.00;99.90;;;;;;6270356;22;20204;-74
2021/06/22 01:34:10;;;;;;;8.43;2.30;;;24.00;99.90;;;;;;6270086;22;20181;-72
2021/06/22 01:36:38;;;;;;;6.13;2.70;;;24.00;99.90;;;;;;6271275;22;20737;-75
2021/06/22 01:39:14;;;;;;;5.75;2.58;;;24.00;99.90;;;;;;6292037;22;20240;-74
2021/06/22 01:41:42;;;;;;;8.50;3.00;;;23.90;99.90;;;;;;6270326;22;20201;-74
2021/06/22 01:44:09;;;;;;;7.20;2.28;;;23.90;99.90;;;;;;6270471;22;20218;-72
2021/06/22 01:46:37;;;;;;;4.90;2.65;;;23.90;99.90;;;;;;6272078;22;20197;-74
2021/06/22 01:49:05;;;;;;;5.22;2.42;;;23.90;99.90;;;;;;6271518;22;20182;-70
2021/06/22 01:51:32;;;;;;;9.00;2.28;;;23.90;99.90;;;;;;6267472;22;20198;-72
2021/06/22 01:54:01;;;;;;;5.90;2.42;;;23.90;99.90;;;;;;6270241;22;20176;-71
2021/06/22 01:56:32;;;;;;;7.03;3.15;;;23.90;99.90;;;;;;6268727;22;20197;-71
2021/06/22 01:59:01;;;;;;;4.93;2.53;;;23.70;99.90;;;;;;6268555;22;20194;-72
2021/06/22 02:01:28;;;;;;;6.28;2.83;;;23.60;99.90;;;;;;6266141;22;20545;-72
2021/06/22 02:03:56;;;;;;;5.60;2.50;;;23.50;99.90;;;;;;6266183;22;20193;-72
2021/06/22 02:06:23;;;;;;;7.15;2.65;;;23.50;99.90;;;;;;6268693;22;20180;-72
2021/06/22 02:08:50;;;;;;;5.50;2.53;;;23.50;99.90;;;;;;6275893;22;20161;-73
2021/06/22 02:11:17;;;;;;;6.93;2.85;;;23.50;99.90;;;;;;6276865;22;20604;-70
2021/06/22 02:13:46;;;;;;;3.95;2.25;;;23.40;99.90;;;;;;6268576;22;20194;-72
2021/06/22 02:16:13;;;;;;;5.22;2.20;;;23.30;99.90;;;;;;6270355;22;20180;-72
2021/06/22 02:18:40;;;;;;;7.78;2.45;;;23.30;99.90;;;;;;6273155;22;20208;-72
2021/06/22 02:21:07;;;;;;;6.45;2.70;;;23.40;99.90;;;;;;6266864;22;20169;-72
2021/06/22 02:23:34;;;;;;;4.35;2.15;;;23.30;99.90;;;;;;6269145;22;20198;-72
2021/06/22 02:26:02;;;;;;;6.05;2.72;;;23.30;99.90;;;;;;6293657;22;20184;-72
2021/06/22 02:28:29;;;;;;;8.02;2.67;;;23.30;99.90;;;;;;6268149;22;20554;-72
2021/06/22 02:30:58;;;;;;;8.88;2.85;;;23.20;99.90;;;;;;6268830;22;20174;-72
2021/06/22 02:33:27;;;;;;;8.77;2.90;;;23.10;99.90;;;;;;6268862;22;20850;-72
2021/06/22 02:35:55;;;;;;;5.68;2.63;;;22.80;99.90;;;;;;6272168;22;20165;-72
2021/06/22 02:38:23;;;;;;;5.32;2.90;;;22.70;99.90;;;;;;6267847;22;20217;-71
2021/06/22 02:40:50;;;;;;;4.22;2.30;;;22.60;99.90;;;;;;6267869;22;20177;-72
2021/06/22 02:43:17;;;;;;;6.63;2.30;;;22.70;99.90;;;;;;6268378;22;20205;-72
2021/06/22 02:45:45;;;;;;;4.75;2.60;;;22.70;99.90;;;;;;6268918;22;20194;-70
2021/06/22 02:48:13;;;;;;;5.45;2.30;;;22.90;99.90;;;;;;6269024;22;20209;-74
2021/06/22 02:50:41;;;;;;;6.88;2.70;;;22.90;99.90;;;;;;6267849;22;20169;-74
2021/06/22 02:53:09;;;;;;;5.63;2.47;;;22.90;99.90;;;;;;6267864;22;20824;-74
2021/06/22 02:55:37;;;;;;;5.35;2.35;;;22.90;99.90;;;;;;6268786;22;20181;-75
2021/06/22 02:58:04;;;;;;;4.82;2.28;;;22.80;99.90;;;;;;6285263;22;20205;-77
2021/06/22 03:00:32;;;;;;;5.82;2.35;;;22.80;99.90;;;;;;6266530;22;20174;-75
2021/06/22 03:03:00;;;;;;;6.43;2.40;;;22.80;99.90;;;;;;6267655;22;20573;-75
2021/06/22 03:05:29;;;;;;;7.85;2.40;;;22.80;99.90;;;;;;6270131;22;20220;-75
2021/06/22 03:07:56;;;;;;;4.28;2.17;;;22.80;99.90;;;;;;6268429;22;20202;-74
2021/06/22 03:10:24;;;;;;;5.93;2.65;;;22.70;99.90;;;;;;6270911;22;20192;-75
2021/06/22 03:12:52;;;;;;;8.18;2.45;;;22.70;99.90;;;;;;6287956;22;20215;-75
2021/06/22 03:15:20;;;;;;;5.38;2.80;;;22.70;99.90;;;;;;6275042;22;20543;-75
2021/06/22 03:17:48;;;;;;;4.53;2.65;;;22.70;99.90;;;;;;6269541;22;20692;-74
2021/06/22 03:20:16;;;;;;;4.20;2.45;;;22.70;99.90;;;;;;6268321;22;20184;-74
2021/06/22 03:22:44;;;;;;;4.97;2.45;;;22.70;99.90;;;;;;6266566;22;20275;-73
2021/06/22 03:25:13;;;;;;;4.65;2.22;;;22.70;99.90;;;;;;6268278;22;20203;-72
2021/06/22 03:27:40;;;;;;;7.85;3.22;;;22.70;99.90;;;;;;6268144;22;20201;-75
2021/06/22 03:30:10;;;;;;;6.57;2.90;;;22.70;99.90;;;;;;6267727;22;20199;-73
2021/06/22 03:32:38;;;;;;;7.45;2.85;;;22.60;99.90;;;;;;6266094;22;20209;-76
2021/06/22 03:35:06;;;;;;;6.10;2.30;;;22.60;99.90;;;;;;6267931;22;20177;-73
2021/06/22 03:37:33;;;;;;;6.38;2.28;;;22.60;99.90;;;;;;6268954;22;20197;-75
2021/06/22 03:40:05;;;;;;;5.13;2.30;;;22.70;99.90;;;;;;6271188;22;20676;-75
2021/06/22 03:42:33;;;;;;;9.07;2.90;;;22.70;99.90;;;;;;6270202;22;20603;-75
2021/06/22 03:45:00;;;;;;;7.80;2.45;;;22.60;99.90;;;;;;6270447;22;20723;-75
2021/06/22 03:47:27;;;;;;;5.50;2.50;;;22.60;99.90;;;;;;6283294;22;20217;-74
2021/06/22 03:49:54;;;;;;;6.95;2.40;;;22.60;99.90;;;;;;6270947;22;20177;-74
2021/06/22 03:52:21;;;;;;;5.55;2.35;;;22.60;99.90;;;;;;6268755;22;20209;-74
2021/06/22 03:54:48;;;;;;;5.15;2.80;;;22.50;99.90;;;;;;6269002;22;20626;-74
2021/06/22 03:57:17;;;;;;;4.15;2.40;;;22.50;99.90;;;;;;6269280;22;20687;-74
2021/06/22 03:59:44;;;;;;;7.07;2.60;;;22.50;99.90;;;;;;6285912;22;20162;-76
2021/06/22 04:02:11;;;;;;;7.35;2.50;;;22.50;99.90;;;;;;6278219;22;20210;-75
2021/06/22 04:04:38;;;;;;;8.27;2.78;;;22.50;99.90;;;;;;6270777;22;20182;-74
2021/06/22 04:07:05;;;;;;;7.50;3.22;;;22.40;99.90;;;;;;6274435;22;20194;-74
2021/06/22 04:09:32;;;;;;;6.82;2.70;;;22.50;99.90;;;;;;6269575;22;20173;-75
2021/06/22 04:11:59;;;;;;;6.47;3.03;;;22.50;99.90;;;;;;6270702;22;20204;-75
2021/06/22 04:14:28;;;;;;;9.13;3.25;;;22.50;99.90;;;;;;6270987;22;20173;-74
2021/06/22 04:16:55;;;;;;;5.95;2.67;;;22.50;99.90;;;;;;6273401;22;20519;-75
2021/06/22 04:19:23;;;;;;;6.45;2.70;;;22.60;99.90;;;;;;6270028;22;20174;-75
2021/06/22 04:21:50;;;;;;;6.63;3.00;;;22.60;99.90;;;;;;6272332;22;20658;-74
2021/06/22 04:24:17;;;;;;;4.75;3.03;;;22.70;99.90;;;;;;6273411;22;20170;-74
2021/06/22 04:26:44;;;;;;;7.85;3.30;;;22.70;99.90;;;;;;6272669;22;20176;-74
2021/06/22 04:29:11;;;;;;;9.40;3.30;;;22.80;99.90;;;;;;6274041;22;20177;-74
2021/06/22 04:31:39;;;;;;;7.38;3.42;;;22.70;99.90;;;;;;6269903;22;20180;-75
2021/06/22 04:34:07;;;;;;;5.55;2.78;;;22.80;99.90;;;;;;6276606;22;20177;-74
2021/06/22 04:36:34;;;;;;;5.38;2.70;;;22.80;99.90;;;;;;6284948;22;20176;-75
2021/06/22 04:39:01;;;;;;;6.05;2.58;;;22.90;99.90;;;;;;6272580;22;20490;-74
2021/06/22 04:41:28;;;;;;;6.05;2.80;;;23.00;99.90;;;;;;6272926;22;20504;-74
2021/06/22 04:43:55;;;;;;;10.25;2.72;;;23.00;99.90;;;;;;6272064;22;20230;-74
2021/06/22 04:46:22;;;;;;;6.32;2.65;;;23.10;99.90;;;;;;6282140;22;20190;-75
2021/06/22 04:48:50;;;;;;;5.40;2.60;;;23.20;99.90;;;;;;6289271;22;20197;-75
2021/06/22 04:51:17;;;;;;;6.05;2.60;;;23.20;99.90;;;;;;6272736;22;20668;-74
2021/06/22 04:53:44;;;;;;;6.97;2.95;;;23.30;99.90;;;;;;6271802;22;20213;-73
2021/06/22 04:56:13;;;;;;;6.70;2.88;;;23.40;99.90;;;;;;6272757;22;20192;-75
2021/06/22 04:58:40;;;;;;;8.82;3.08;;;23.50;99.90;;;;;;6272257;22;20204;-73
2021/06/22 05:01:07;;;;;;;5.15;2.90;;;23.60;99.90;;;;;;6268756;22;20182;-75
2021/06/22 05:03:36;;;;;;;8.02;3.13;;;23.70;99.90;;;;;;6269599;22;20236;-75
2021/06/22 05:06:06;;;;;;;11.30;3.28;;;23.70;99.90;;;;;;6267445;22;20198;-75
2021/06/22 05:08:33;;;;;;;7.90;3.30;;;23.70;99.90;;;;;;6270146;22;20201;-75
2021/06/22 05:11:00;;;;;;;8.13;3.20;;;23.80;99.90;;;;;;6273463;22;20511;-75
2021/06/22 05:13:27;;;;;;;8.13;3.33;;;23.80;99.90;;;;;;6273565;22;20680;-76
2021/06/22 05:15:54;;;;;;;8.52;3.63;;;23.80;99.90;;;;;;6275427;22;20995;-75
2021/06/22 05:18:21;;;;;;;10.35;4.18;;;23.80;99.90;;;;;;6275283;22;20198;-75
2021/06/22 05:20:48;;;;;;;7.35;3.20;;;23.80;99.90;;;;;;6274485;22;20173;-75
2021/06/22 05:23:17;;;;;;;8.48;3.90;;;23.60;99.90;;;;;;6282243;22;20215;-75
2021/06/22 05:25:44;;;;;;;5.13;2.78;;;23.70;99.90;;;;;;6283120;22;20222;-74
2021/06/22 05:28:12;;;;;;;11.27;3.38;;;23.70;99.90;;;;;;6274426;22;20201;-74
2021/06/22 05:30:40;;;;;;;11.10;3.72;;;23.70;99.90;;;;;;6274748;22;20170;-75
2021/06/22 05:33:07;;;;;;;8.65;3.78;;;23.70;99.90;;;;;;6278548;22;20209;-76
2021/06/22 05:35:34;;;;;;;7.78;3.55;;;23.70;99.90;;;;;;6293237;22;20622;-75
2021/06/22 05:38:02;;;;;;;8.55;3.63;;;23.70;99.90;;;;;;6272307;22;20216;-74
2021/06/22 05:40:30;;;;;;;13.90;3.67;;;23.70;99.90;;;;;;6272042;22;20180;-75
2021/06/22 05:42:57;;;;;;;13.20;4.10;;;23.60;99.90;;;;;;6271953;22;20235;-74
2021/06/22 05:45:24;;;;;;;12.48;4.28;;;23.60;99.90;;;;;;6273352;22;20272;-75
2021/06/22 05:47:51;;;;;;;14.55;4.25;;;23.50;99.90;;;;;;6272324;22;20282;-74
2021/06/22 05:50:19;;;;;;;12.10;4.13;;;23.60;99.90;;;;;;6272203;22;20177;-74
2021/06/22 05:52:46;;;;;;;10.65;4.45;;;23.70;99.90;;;;;;6272256;22;20205;-74
2021/06/22 05:55:17;;;;;;;10.98;4.00;;;23.80;99.90;;;;;;6273049;22;20176;-76
2021/06/22 05:57:50;;;;;;;11.50;3.95;;;24.00;99.90;;;;;;6272869;22;20202;-76
2021/06/22 06:00:19;;;;;;;14.43;4.15;;;24.10;99.90;;;;;;6271926;22;20677;-75
2021/06/22 06:02:46;;;;;;;12.13;4.20;;;24.30;99.90;;;;;;6270732;22;20217;-74
2021/06/22 06:05:16;;;;;;;12.18;4.05;;;24.40;99.90;;;;;;6274141;22;20527;-76
2021/06/22 06:07:43;;;;;;;8.35;3.72;;;24.30;99.90;;;;;;6272348;22;20197;-76
2021/06/22 06:10:11;;;;;;;10.02;4.07;;;24.30;99.90;;;;;;6273481;22;20661;-76
2021/06/22 06:12:39;;;;;;;10.82;4.53;;;24.30;99.90;;;;;;6285262;22;20207;-79
2021/06/22 06:15:09;;;;;;;11.23;3.95;;;24.40;99.90;;;;;;6275302;22;20174;-75
2021/06/22 06:17:37;;;;;;;7.45;3.50;;;24.50;99.90;;;;;;6272012;22;20201;-77
2021/06/22 06:20:05;;;;;;;7.85;3.70;;;24.60;99.90;;;;;;6275255;22;20665;-76
2021/06/22 06:22:32;;;;;;;8.70;3.65;;;24.90;99.90;;;;;;6294505;22;20206;-76
2021/06/22 06:25:02;;;;;;;8.00;3.65;;;24.90;99.90;;;;;;6270162;22;20177;-75
2021/06/22 06:27:38;;;;;;;14.50;3.92;;;25.00;99.90;;;;;;6270692;22;20703;-75
2021/06/22 06:30:10;;;;;;;15.25;4.50;;;24.90;99.90;;;;;;6271247;22;20162;-75
2021/06/22 06:32:37;;;;;;;10.25;4.38;;;24.90;99.90;;;;;;6269348;22;20213;-75
2021/06/22 06:35:05;;;;;;;9.50;3.95;;;25.00;99.90;;;;;;6271705;22;20645;-75
2021/06/22 06:37:33;;;;;;;10.98;4.30;;;24.90;99.90;;;;;;6271632;22;20198;-74
2021/06/22 06:40:00;;;;;;;15.73;4.50;;;24.80;99.90;;;;;;6271542;22;20642;-77
2021/06/22 06:42:27;;;;;;;14.15;3.75;;;24.90;99.90;;;;;;6271922;22;20211;-76
2021/06/22 06:44:55;;;;;;;8.07;3.47;;;24.90;99.90;;;;;;6273728;22;20180;-77
2021/06/22 06:47:23;;;;;;;12.50;4.03;;;25.00;99.90;;;;;;6271656;22;20670;-75
2021/06/22 06:49:50;;;;;;;8.27;4.07;;;25.20;99.90;;;;;;6275718;22;20176;-76
2021/06/22 06:52:17;;;;;;;13.00;4.20;;;25.40;99.90;;;;;;6270006;22;20233;-75
2021/06/22 06:54:44;;;;;;;12.07;4.20;;;25.60;99.90;;;;;;6264092;22;20173;-74
2021/06/22 06:57:12;;;;;;;10.98;4.57;;;25.60;99.90;;;;;;6263996;22;20180;-77
2021/06/22 06:59:41;;;;;;;11.52;4.07;;;25.60;99.90;;;;;;6265887;22;20214;-77
2021/06/22 07:02:09;;;;;;;11.73;4.32;;;25.60;99.90;;;;;;6277551;22;20208;-75
2021/06/22 07:04:37;;;;;;;12.23;4.75;;;25.60;99.90;;;;;;6267233;22;20189;-76
2021/06/22 07:07:05;;;;;;;12.35;3.90;;;25.60;99.90;;;;;;6269766;22;20193;-78
2021/06/22 07:09:33;;;;;;;10.85;3.97;;;25.70;99.90;;;;;;6282744;22;20240;-75
2021/06/22 07:12:01;;;;;;;11.15;3.70;;;25.80;99.90;;;;;;6263272;22;20231;-76
2021/06/22 07:14:28;;;;;;;11.93;4.40;;;25.90;99.90;;;;;;6266565;22;20188;-76
2021/06/22 07:16:55;;;;;;;8.88;3.65;;;26.10;99.90;;;;;;6268432;22;20177;-75
2021/06/22 07:19:22;;;;;;;10.55;4.50;;;26.20;99.90;;;;;;6265843;22;20196;-77
2021/06/22 07:21:51;;;;;;;15.50;4.65;;;26.40;99.90;;;;;;6263544;22;20272;-77
2021/06/22 07:24:18;;;;;;;15.93;4.97;;;26.50;99.90;;;;;;6264652;22;20209;-76
2021/06/22 07:26:45;;;;;;;14.13;4.50;;;26.50;99.90;;;;;;6268049;22;20186;-75
2021/06/22 07:29:12;;;;;;;13.48;4.80;;;26.60;99.90;;;;;;6265050;22;20212;-76
2021/06/22 07:31:39;;;;;;;14.02;4.30;;;26.60;99.90;;;;;;6264878;22;20180;-76
2021/06/22 07:34:07;;;;;;;13.13;4.30;;;26.70;99.90;;;;;;6264772;22;20208;-77
2021/06/22 07:36:34;;;;;;;11.57;4.80;;;26.80;99.90;;;;;;6269142;22;20173;-76
2021/06/22 07:39:05;;;;;;;17.23;5.07;;;26.80;99.90;;;;;;6273298;22;20407;-76
2021/06/22 07:41:32;;;;;;;13.27;5.18;;;26.60;99.90;;;;;;6273309;22;20211;-77
2021/06/22 07:43:59;;;;;;;13.45;4.90;;;26.60;99.90;;;;;;6270129;22;20202;-76
2021/06/22 07:46:26;;;;;;;14.25;4.50;;;26.70;99.90;;;;;;6273618;22;20677;-76
2021/06/22 07:48:53;;;;;;;12.40;4.65;;;26.90;99.90;;;;;;6266635;22;20542;-74
2021/06/22 07:51:20;;;;;;;13.82;5.25;;;27.00;99.90;;;;;;6285115;22;20174;-75
2021/06/22 07:53:47;;;;;;;15.25;5.15;;;27.00;99.90;;;;;;6268959;22;20216;-78
2021/06/22 07:56:16;;;;;;;15.60;4.60;;;26.90;99.90;;;;;;6289969;22;20232;-78
2021/06/22 07:58:43;;;;;;;10.63;4.10;;;26.90;99.90;;;;;;6272651;22;20198;-78
2021/06/22 08:01:10;;;;;;;14.35;5.03;;;27.00;99.90;;;;;;6273092;22;20173;-77
2021/06/22 08:03:37;;;;;;;12.70;4.50;;;27.00;99.90;;;;;;6270460;22;20216;-78
2021/06/22 08:06:05;;;;;;;8.75;4.32;;;27.00;99.90;;;;;;6264951;22;20204;-75
2021/06/22 08:08:32;;;;;;;10.73;3.95;;;27.00;99.90;;;;;;6268636;22;20259;-77
2021/06/22 08:10:59;;;;;;;10.88;3.60;;;27.50;99.90;;;;;;6271552;22;20517;-76
2021/06/22 08:13:28;;;;;;;9.75;3.95;;;27.90;99.90;;;;;;6272163;22;20205;-77
2021/06/22 08:15:56;;;;;;;13.25;4.72;;;28.20;99.90;;;;;;6269928;22;20550;-78
2021/06/22 08:18:24;;;;;;;15.15;4.60;;;28.10;99.90;;;;;;6269362;22;20201;-78
2021/06/22 08:20:52;;;;;;;14.77;5.35;;;28.20;99.90;;;;;;6271198;22;20170;-76
2021/06/22 08:23:20;;;;;;;14.68;5.18;;;28.30;99.90;;;;;;6271752;22;20275;-77
2021/06/22 08:25:48;;;;;;;14.05;4.63;;;28.40;99.90;;;;;;6268021;22;20665;-75
2021/06/22 08:28:16;;;;;;;16.30;4.63;;;28.40;99.90;;;;;;6266510;22;20543;-75
2021/06/22 08:30:45;;;;;;;7.97;3.90;;;28.50;99.90;;;;;;6267208;22;20357;-76
2021/06/22 08:33:13;;;;;;;14.70;4.20;;;28.60;99.90;;;;;;6269477;22;20197;-77
2021/06/22 08:35:40;;;;;;;11.13;4.35;;;28.80;99.90;;;;;;6270287;22;20173;-76
2021/06/22 08:38:09;;;;;;;16.13;3.90;;;29.00;99.90;;;;;;6267314;22;20193;-76
2021/06/22 08:40:36;;;;;;;11.88;4.07;;;29.20;99.90;;;;;;6284069;22;20177;-77
2021/06/22 08:43:04;;;;;;;16.35;4.03;;;29.20;99.90;;;;;;6287108;22;20194;-76
2021/06/22 08:45:31;;;;;;;13.80;3.75;;;29.20;99.90;;;;;;6268823;22;20184;-75
2021/06/22 08:48:04;;;;;;;16.85;4.40;;;29.20;99.90;;;;;;6273364;22;20198;-76
2021/06/22 08:50:31;;;;;;;10.65;3.47;;;29.10;99.90;;;;;;6267487;22;20162;-76
2021/06/22 08:52:58;;;;;;;15.23;3.85;;;29.10;99.90;;;;;;6266196;22;21033;-77
2021/06/22 08:55:30;;;;;;;13.60;4.40;;;29.30;99.90;;;;;;6269997;22;20336;-76
2021/06/22 08:58:01;;;;;;;13.20;4.15;;;29.60;99.90;;;;;;6272073;22;20272;-75
2021/06/22 09:00:29;;;;;;;12.68;3.88;;;29.60;99.90;;;;;;6267624;22;20170;-76
2021/06/22 09:03:11;;;;;;;17.77;3.88;;;29.60;99.90;;;;;;6267755;22;20255;-77
2021/06/22 09:05:38;;;;;;;8.07;3.35;;;29.60;99.90;;;;;;6265023;22;20245;-75
2021/06/22 09:08:06;;;;;;;11.20;4.05;;;29.60;99.90;;;;;;6266960;22;20476;-77
2021/06/22 09:10:35;;;;;;;10.52;3.55;;;29.60;99.90;;;;;;6269710;22;20169;-77
2021/06/22 09:13:13;;;;;;;12.88;3.70;;;29.70;99.90;;;;;;6267748;22;20719;-75
2021/06/22 09:15:41;;;;;;;9.98;4.05;;;30.00;99.90;;;;;;6264914;22;20161;-74
2021/06/22 09:18:26;;;;;;;10.55;3.42;;;30.20;99.90;;;;;;6264269;22;20213;-74
2021/06/22 09:20:54;;;;;;;9.88;3.42;;;30.30;99.90;;;;;;6266200;22;20168;-76
2021/06/22 09:23:23;;;;;;;9.82;3.55;;;30.50;99.90;;;;;;6273013;22;20228;-77
2021/06/22 09:25:52;;;;;;;17.10;4.47;;;30.70;99.90;;;;;;6272455;22;20180;-75
2021/06/22 09:28:24;;;;;;;14.00;4.00;;;30.70;99.90;;;;;;6274266;22;20276;-76
2021/06/22 09:30:53;;;;;;;15.68;4.28;;;30.70;99.90;;;;;;6282326;22;20153;-74
2021/06/22 09:33:25;;;;;;;10.82;3.92;;;30.70;99.90;;;;;;6265702;22;20205;-75
2021/06/22 09:36:00;;;;;;;11.93;3.95;;;30.70;99.90;;;;;;6267546;22;20185;-76
2021/06/22 09:38:34;;;;;;;8.52;3.53;;;30.80;99.90;;;;;;6268993;22;20266;-75
2021/06/22 09:41:16;;;;;;;10.18;3.60;;;30.90;99.90;;;;;;6272400;22;20636;-75
2021/06/22 09:43:46;;;;;;;13.50;3.13;;;30.90;99.90;;;;;;6266864;22;20694;-76
2021/06/22 09:46:14;;;;;;;11.27;3.08;;;30.90;99.90;;;;;;6267946;22;20198;-76
2021/06/22 09:48:55;;;;;;;8.23;2.90;;;30.90;99.90;;;;;;6268779;22;20678;-76
2021/06/22 09:51:29;;;;;;;8.57;3.08;;;31.00;99.90;;;;;;6270899;22;20158;-76
2021/06/22 09:54:07;;;;;;;6.68;2.55;;;31.10;99.60;;;;;;6269755;22;20204;-77
2021/06/22 09:56:35;;;;;;;8.40;2.92;;;31.10;99.90;;;;;;6275460;22;20149;-77
2021/06/22 09:59:06;;;;;;;12.55;3.47;;;31.20;99.90;;;;;;6275695;22;20198;-76
2021/06/22 10:01:35;;;;;;;9.50;3.50;;;31.40;99.90;;;;;;6272032;22;20158;-77
2021/06/22 10:04:18;;;;;;;10.95;3.40;;;31.40;99.30;;;;;;6265539;22;20669;-77
2021/06/22 10:06:54;;;;;;;9.32;2.85;;;31.60;98.30;;;;;;6268447;22;20194;-76
2021/06/22 10:09:24;;;;;;;8.00;2.40;;;31.70;98.20;;;;;;6264487;22;20205;-76
2021/06/22 10:12:00;;;;;;;8.95;2.80;;;31.60;97.20;;;;;;6266690;22;20190;-76
2021/06/22 10:14:30;;;;;;;8.82;2.78;;;31.70;96.30;;;;;;6270783;22;20416;-76
2021/06/22 10:16:59;;;;;;;6.10;2.20;;;31.80;96.60;;;;;;6286799;22;20174;-79
2021/06/22 10:19:28;;;;;;;6.57;2.05;;;31.80;95.30;;;;;;6282337;22;20207;-77
2021/06/22 10:21:56;;;;;;;5.18;1.85;;;31.90;93.70;;;;;;6267308;22;20489;-77
2021/06/22 10:24:25;;;;;;;8.27;2.13;;;31.90;92.00;;;;;;6269450;22;20197;-76
2021/06/22 10:26:53;;;;;;;5.07;2.10;;;31.80;90.90;;;;;;6268021;22;20228;-76
2021/06/22 10:29:23;;;;;;;4.80;1.70;;;31.90;91.30;;;;;;6266997;22;20296;-76
2021/06/22 10:31:52;;;;;;;6.13;2.05;;;32.00;90.00;;;;;;6270085;22;20193;-76
2021/06/22 10:34:19;;;;;;;6.72;2.30;;;31.90;90.30;;;;;;6270694;22;20258;-77
2021/06/22 10:36:54;;;;;;;8.10;2.10;;;31.80;90.90;;;;;;6271829;22;20228;-76
2021/06/22 10:39:27;;;;;;;14.50;2.42;;;31.70;90.60;;;;;;6274033;22;20279;-77
2021/06/22 10:41:56;;;;;;;7.35;2.05;;;31.40;90.70;;;;;;6268720;22;20200;-78
2021/06/22 10:45:00;;;;;;;6.47;2.20;;;31.60;90.00;;;;;;6268366;22;20212;-77
2021/06/22 10:47:32;;;;;;;6.88;2.50;;;31.70;89.30;;;;;;6171616;23;20179;-76
2021/06/22 10:50:17;;;;;;;13.52;3.10;;;31.70;90.80;;;;;;6253148;22;20203;-76
2021/06/22 10:53:07;;;;;;;9.55;2.53;;;31.50;91.40;;;;;;6267558;22;20241;-77
2021/06/22 10:56:16;;;;;;;11.10;3.00;;;31.50;91.90;;;;;;6269559;22;20154;-76
2021/06/22 10:59:21;;;;;;;7.78;2.80;;;31.50;92.20;;;;;;6267710;22;20203;-77
2021/06/22 11:02:06;;;;;;;7.18;2.65;;;31.80;93.50;;;;;;6271550;22;20189;-78
2021/06/22 11:04:34;;;;;;;6.68;2.90;;;32.00;92.60;;;;;;6285519;22;20201;-76
2021/06/22 11:07:22;;;;;;;7.03;2.85;;;31.80;93.00;;;;;;6281499;22;20257;-76
2021/06/22 11:10:16;;;;;;;12.25;2.90;;;31.90;92.90;;;;;;6268597;22;20228;-76
2021/06/22 11:12:57;;;;;;;12.38;2.63;;;31.40;92.70;;;;;;6267475;22;20689;-75
2021/06/22 11:15:46;;;;;;;5.05;2.50;;;31.20;91.70;;;;;;6266122;22;20618;-76
2021/06/22 11:18:17;;;;;;;8.70;2.72;;;31.60;92.60;;;;;;6266972;22;20205;-77
2021/06/22 11:20:44;;;;;;;9.73;3.03;;;31.70;92.70;;;;;;6266079;22;20176;-75
2021/06/22 11:23:13;;;;;;;7.97;2.67;;;31.50;93.50;;;;;;6268770;22;20212;-76
2021/06/22 11:26:03;;;;;;;6.47;2.88;;;31.70;94.00;;;;;;6269070;22;20174;-77
2021/06/22 11:28:52;;;;;;;8.95;3.17;;;32.00;94.10;;;;;;6271124;22;20233;-77
2021/06/22 11:31:37;;;;;;;8.63;3.10;;;31.80;93.70;;;;;;6268509;22;20157;-76
2021/06/22 11:34:06;;;;;;;8.65;2.90;;;31.70;93.10;;;;;;6265070;22;20311;-75
2021/06/22 11:36:35;;;;;;;8.18;3.10;;;32.00;94.00;;;;;;6267779;22;20262;-75
2021/06/22 11:39:23;;;;;;;9.40;2.65;;;31.90;93.20;;;;;;6267892;22;20696;-76
2021/06/22 11:42:23;;;;;;;8.75;2.65;;;31.70;93.10;;;;;;6266563;22;20190;-73
2021/06/22 11:45:18;;;;;;;12.48;3.17;;;31.80;93.70;;;;;;6269091;22;20693;-75
2021/06/22 11:48:00;;;;;;;8.23;2.53;;;31.80;94.40;;;;;;6267707;22;20197;-76
2021/06/22 11:50:36;;;;;;;7.55;2.50;;;32.20;93.90;;;;;;6274688;22;20212;-77
2021/06/22 11:53:13;;;;;;;7.25;2.65;;;32.10;93.30;;;;;;6281602;22;20239;-76
2021/06/22 11:55:54;;;;;;;8.13;2.60;;;32.10;93.90;;;;;;6277682;22;20211;-75
2021/06/22 11:58:29;;;;;;;12.82;2.95;;;32.00;93.30;;;;;;6265296;22;20732;-76
2021/06/22 12:00:58;;;;;;;8.68;3.25;;;32.10;94.20;;;;;;6267688;22;20175;-77
2021/06/22 12:03:31;;;;;;;6.18;2.67;;;31.90;93.80;;;;;;6268219;22;20231;-76
2021/06/22 12:06:10;;;;;;;7.25;2.72;;;31.80;94.30;;;;;;6269307;22;20208;-77
2021/06/22 12:08:41;;;;;;;10.30;2.90;;;32.00;93.90;;;;;;6266885;22;20591;-75
2021/06/22 12:11:13;;;;;;;8.40;2.65;;;32.20;93.10;;;;;;6268480;22;20252;-76
2021/06/22 12:13:44;;;;;;;7.22;2.95;;;32.20;93.10;;;;;;6269191;22;20673;-76
2021/06/22 12:16:24;;;;;;;9.85;2.92;;;32.10;93.40;;;;;;6267668;22;20610;-75
2021/06/22 12:18:52;;;;;;;9.07;2.88;;;32.10;94.10;;;;;;6262871;22;20786;-76
2021/06/22 12:21:20;;;;;;;10.82;2.70;;;32.20;94.20;;;;;;6261494;22;20538;-76
2021/06/22 12:23:47;;;;;;;10.07;2.83;;;32.30;93.80;;;;;;6257550;22;20220;-76
2021/06/22 12:26:16;;;;;;;7.43;2.75;;;32.20;93.20;;;;;;6261382;22;20660;-76
2021/06/22 12:28:45;;;;;;;8.80;2.67;;;32.10;93.80;;;;;;6263211;22;20938;-76
2021/06/22 12:31:14;;;;;;;10.40;3.00;;;32.00;92.80;;;;;;6260321;22;20169;-77
2021/06/22 12:33:43;;;;;;;5.15;2.10;;;31.80;93.70;;;;;;6263250;22;20220;-76
2021/06/22 12:36:13;;;;;;;5.47;2.20;;;32.00;93.60;;;;;;6262216;22;20170;-77
2021/06/22 12:38:41;;;;;;;7.82;2.58;;;32.00;92.90;;;;;;6277186;22;20225;-77
2021/06/22 12:41:10;;;;;;;6.57;2.20;;;32.10;92.70;;;;;;6269805;22;20514;-77
2021/06/22 12:43:50;;;;;;;6.25;2.30;;;32.10;92.90;;;;;;6265024;22;20747;-76
2021/06/22 12:46:19;;;;;;;8.45;2.63;;;32.20;91.80;;;;;;6272206;22;20154;-75
2021/06/22 12:48:47;;;;;;;9.82;2.70;;;32.20;91.80;;;;;;6266790;22;20213;-76
2021/06/22 12:51:17;;;;;;;6.53;2.50;;;32.00;91.90;;;;;;6265274;22;20180;-76
2021/06/22 12:53:49;;;;;;;4.72;2.20;;;32.10;91.70;;;;;;6264992;22;20255;-75
2021/06/22 12:56:18;;;;;;;5.18;2.20;;;32.10;91.60;;;;;;6265269;22;20531;-75